Aviation Digital Data Service (ADDS)

Output produced by METARs form (1110 UTC 24 January 2017)
found at http://www.aviationweather.gov/adds/metars/
 
KMIV 241054Z AUTO 34015G21KT 10SM OVC013 04/03 A2934 RMK AO2 PK WND 36028/1023 SLP935 T00390028
KMIV 240633Z 2407/2506 02011G20KT 3SM -RADZ BR OVC015 
     FM241200 35013G23KT 5SM -RADZ BR OVC015 
     FM241700 32014G24KT P6SM -SHRA OVC025 
     FM242300 30010G20KT P6SM BKN035